Time;durP1;ratioP1;P1;durP2;ratioP2;P2;SDS_P1;SDS_P2;PMS_P1;PMS_P2;Temp;Humidity;BMP_temperature;BMP_pressure;BME280_temperature;BME280_humidity;BME280_pressure;Samples;Min_cycle;Max_cycle;Signal;HPM_P1;HPM_P2
2020/12/31 00:00:03;;;;;;;;;;;;;;;17.21;59.37;100711.91;4989810;28;920;-73
2020/12/31 00:02:29;;;;;;;;;;;;;;;17.14;59.21;100713.16;4989844;28;1229;-73
2020/12/31 00:04:55;;;;;;;;;;;;;;;17.10;59.15;100711.59;4989725;28;1048;-70
2020/12/31 00:07:22;;;;;;;;;;;;;;;17.07;59.18;100717.00;4989677;28;1308;-73
2020/12/31 00:09:48;;;;;;;;;;;;;;;17.05;59.28;100716.25;4972178;28;1181;-72
2020/12/31 00:12:15;;;;;;;;;;;;;;;17.01;59.40;100701.53;4988144;28;1308;-73
2020/12/31 00:14:41;;;;;;;;;;;;;;;17.02;59.35;100705.88;4989829;28;1972;-72
2020/12/31 00:17:08;;;;;;;;;;;;;;;17.00;59.34;100702.44;4989278;28;1225;-74
2020/12/31 00:19:34;;;;;;;;;;;;;;;17.02;59.34;100705.88;4991454;28;779;-73
2020/12/31 00:22:03;;;;;;;;;;;;;;;16.99;59.29;100711.28;4976119;28;1315;-73
2020/12/31 00:24:32;;;;;;;;;;;;;;;16.97;59.47;100710.50;5008213;28;1068;-73
2020/12/31 00:26:59;;;;;;;;;;;;;;;16.97;59.29;100710.50;4993088;28;1395;-73
2020/12/31 00:29:25;;;;;;;;;;;;;;;16.94;59.30;100714.13;4993326;28;819;-72
2020/12/31 00:31:54;;;;;;;;;;;;;;;16.96;59.40;100714.94;5007605;28;1237;-72
2020/12/31 00:34:21;;;;;;;;;;;;;;;16.94;59.18;100707.09;4991867;28;1136;-73
2020/12/31 00:36:47;;;;;;;;;;;;;;;16.91;59.26;100709.88;4991511;28;1910;-72
2020/12/31 00:39:13;;;;;;;;;;;;;;;16.90;59.47;100707.34;5008044;28;1202;-72
2020/12/31 00:41:40;;;;;;;;;;;;;;;16.90;59.45;100709.97;4993380;28;1312;-72
2020/12/31 00:44:11;;;;;;;;;;;;;;;16.90;59.48;100713.44;4993225;28;808;-72
2020/12/31 00:46:37;;;;;;;;;;;;;;;16.86;59.45;100705.78;4991981;28;1221;-72
2020/12/31 00:49:04;;;;;;;;;;;;;;;16.86;59.47;100709.28;4991856;28;1189;-72
2020/12/31 00:51:30;;;;;;;;;;;;;;;16.85;59.42;100704.94;4991904;28;1319;-73
2020/12/31 00:53:58;;;;;;;;;;;;;;;16.84;59.45;100708.47;5007916;28;1285;-72
2020/12/31 00:56:24;;;;;;;;;;;;;;;16.81;59.35;100703.38;5007746;28;1910;-73
2020/12/31 00:58:50;;;;;;;;;;;;;;;16.83;59.41;100712.06;4993020;28;1753;-73
2020/12/31 01:01:16;;;;;;;;;;;;;;;16.81;59.43;100711.25;4992821;28;1081;-74
2020/12/31 01:03:43;;;;;;;;;;;;;;;16.82;59.50;100717.38;4991194;28;1350;-73
2020/12/31 01:06:09;;;;;;;;;;;;;;;16.83;59.34;100711.19;4992527;28;899;-73
2020/12/31 01:08:35;;;;;;;;;;;;;;;16.81;59.29;100711.25;4993023;28;1233;-73
2020/12/31 01:11:02;;;;;;;;;;;;;;;16.80;59.38;100700.84;4991382;28;1176;-74
2020/12/31 01:13:28;;;;;;;;;;;;;;;16.75;59.25;100706.31;4992616;28;1314;-72
2020/12/31 01:15:55;;;;;;;;;;;;;;;16.76;59.33;100709.78;4992604;28;1970;-73
2020/12/31 01:18:21;;;;;;;;;;;;;;;16.74;59.34;100706.41;4991026;28;1308;-72
2020/12/31 01:20:47;;;;;;;;;;;;;;;16.74;59.24;100707.25;5007495;28;818;-73
2020/12/31 01:23:14;;;;;;;;;;;;;;;16.72;59.21;100711.72;4991037;28;1331;-74
2020/12/31 01:25:40;;;;;;;;;;;;;;;16.72;59.46;100713.47;4992471;28;811;-74
2020/12/31 01:28:06;;;;;;;;;;;;;;;16.70;59.43;100707.47;4992697;28;1288;-73
2020/12/31 01:30:32;;;;;;;;;;;;;;;16.66;59.30;100709.38;4991649;28;1131;-73
2020/12/31 01:32:58;;;;;;;;;;;;;;;16.68;59.39;100710.19;4990992;28;1249;-74
2020/12/31 01:35:25;;;;;;;;;;;;;;;16.68;59.43;100702.28;4991227;28;1935;-75
2020/12/31 01:37:51;;;;;;;;;;;;;;;16.67;59.20;100705.84;4991048;28;1331;-75
2020/12/31 01:40:17;;;;;;;;;;;;;;;16.66;59.26;100698.84;4992472;28;1100;-75
2020/12/31 01:42:44;;;;;;;;;;;;;;;16.64;59.41;100703.34;4991852;28;1223;-75
2020/12/31 01:45:13;;;;;;;;;;;;;;;16.65;59.18;100712.09;4992100;28;787;-75
2020/12/31 01:47:40;;;;;;;;;;;;;;;16.63;59.21;100706.03;4990662;28;1230;-75
2020/12/31 01:50:06;;;;;;;;;;;;;;;16.63;59.38;100714.78;5006869;28;977;-75
2020/12/31 01:52:33;;;;;;;;;;;;;;;16.63;59.17;100709.53;4991933;28;1161;-75
2020/12/31 01:55:01;;;;;;;;;;;;;;;16.63;59.38;100713.94;4991761;28;1906;-75
2020/12/31 01:57:29;;;;;;;;;;;;;;;16.61;59.43;100714.03;4990220;28;1374;-74
2020/12/31 01:59:55;;;;;;;;;;;;;;;16.58;59.31;100706.28;4990322;28;1307;-73
2020/12/31 02:02:22;;;;;;;;;;;;;;;16.61;59.34;100706.13;4990312;28;1237;-73
2020/12/31 02:04:49;;;;;;;;;;;;;;;16.60;59.33;100703.56;4991658;28;826;-73
2020/12/31 02:07:15;;;;;;;;;;;;;;;16.58;59.06;100706.28;4991657;28;1233;-73
2020/12/31 02:09:42;;;;;;;;;;;;;;;16.58;59.21;100700.16;4991148;28;831;-72
2020/12/31 02:12:08;;;;;;;;;;;;;;;16.56;59.35;100705.50;4991311;28;1213;-72
2020/12/31 02:14:35;;;;;;;;;;;;;;;16.55;59.29;100698.53;4990034;28;1271;-73
2020/12/31 02:17:01;;;;;;;;;;;;;;;16.55;59.09;100692.44;4991190;28;2016;-72
2020/12/31 02:19:27;;;;;;;;;;;;;;;16.55;59.20;100692.44;4991307;28;1305;-73
2020/12/31 02:21:53;;;;;;;;;;;;;;;16.52;59.05;100693.41;4991213;28;1263;-73
2020/12/31 02:24:20;;;;;;;;;;;;;;;16.52;59.06;100692.53;4991351;28;945;-73
2020/12/31 02:26:47;;;;;;;;;;;;;;;16.50;59.21;100681.25;4991273;28;1242;-72
2020/12/31 02:29:14;;;;;;;;;;;;;;;16.51;59.03;100678.53;4991120;28;1152;-72
2020/12/31 02:31:41;;;;;;;;;;;;;;;16.50;59.02;100678.63;5006002;28;1327;-72
2020/12/31 02:34:08;;;;;;;;;;;;;;;16.51;59.06;100688.19;5005989;28;1151;-72
2020/12/31 02:36:35;;;;;;;;;;;;;;;16.48;59.16;100683.09;4990703;28;1981;-73
2020/12/31 02:39:03;;;;;;;;;;;;;;;16.48;59.02;100685.72;4991351;28;1057;-73
2020/12/31 02:41:30;;;;;;;;;;;;;;;16.47;58.87;100700.66;4989371;28;1308;-72
2020/12/31 02:43:56;;;;;;;;;;;;;;;16.47;59.06;100698.03;5005689;28;1165;-73
2020/12/31 02:46:22;;;;;;;;;;;;;;;16.46;58.81;100687.56;4991115;28;1033;-73
2020/12/31 02:48:49;;;;;;;;;;;;;;;16.47;59.00;100684.03;5006126;28;1324;-72
2020/12/31 02:51:22;;;;;;;;;;;;;;;16.44;59.14;100686.81;4989898;28;1073;-74
2020/12/31 02:53:50;;;;;;;;;;;;;;;16.44;58.81;100681.56;4990827;28;1249;-73
2020/12/31 02:56:17;;;;;;;;;;;;;;;16.44;58.88;100674.53;4991833;28;1915;-74
2020/12/31 02:58:44;;;;;;;;;;;;;;;16.41;58.99;100670.25;4990704;28;1373;-74
2020/12/31 03:01:10;;;;;;;;;;;;;;;16.42;58.97;100668.47;4989405;28;1268;-73
2020/12/31 03:03:37;;;;;;;;;;;;;;;16.40;59.02;100660.66;4990686;28;1225;-72
2020/12/31 03:06:04;;;;;;;;;;;;;;;16.39;58.85;100660.72;4989354;28;1298;-74
2020/12/31 03:08:30;;;;;;;;;;;;;;;16.39;59.03;100658.09;4990485;28;1317;-73
2020/12/31 03:10:56;;;;;;;;;;;;;;;16.38;59.06;100661.69;4990497;28;1247;-73
2020/12/31 03:13:23;;;;;;;;;;;;;;;16.39;59.08;100660.72;4990340;28;1363;-73
2020/12/31 03:15:50;;;;;;;;;;;;;;;16.38;59.11;100659.88;5005351;28;1981;-73
2020/12/31 03:18:16;;;;;;;;;;;;;;;16.37;58.95;100662.59;4990114;28;1229;-73
2020/12/31 03:20:43;;;;;;;;;;;;;;;16.36;59.00;100660.88;4989158;28;1263;-72
2020/12/31 03:23:10;;;;;;;;;;;;;;;16.33;59.09;100654.00;4990201;28;1245;-72
2020/12/31 03:25:36;;;;;;;;;;;;;;;16.36;58.90;100653.00;4990456;28;1015;-72
2020/12/31 03:28:03;;;;;;;;;;;;;;;16.34;58.94;100666.22;4988889;28;1192;-73
2020/12/31 03:30:30;;;;;;;;;;;;;;;16.34;58.87;100662.75;5005039;28;924;-74
2020/12/31 03:32:56;;;;;;;;;;;;;;;16.34;58.86;100662.75;4990071;28;1249;-74
2020/12/31 03:35:22;;;;;;;;;;;;;;;16.33;58.99;100658.41;4990260;28;1980;-74
2020/12/31 03:37:49;;;;;;;;;;;;;;;16.31;59.15;100662.88;5004723;28;1335;-74
2020/12/31 03:40:15;;;;;;;;;;;;;;;16.31;58.80;100655.00;4988810;28;1218;-76
2020/12/31 03:42:41;;;;;;;;;;;;;;;16.33;58.73;100643.47;4990080;28;1348;-76
2020/12/31 03:45:10;;;;;;;;;;;;;;;16.29;59.02;100648.97;5004658;28;1135;-76
2020/12/31 03:47:36;;;;;;;;;;;;;;;16.30;58.85;100653.28;4989857;28;1225;-73
2020/12/31 03:50:04;;;;;;;;;;;;;;;16.29;59.02;100659.50;4988474;28;1196;-73
2020/12/31 03:52:30;;;;;;;;;;;;;;;16.27;59.15;100658.69;4989846;28;1229;-73
2020/12/31 03:54:57;;;;;;;;;;;;;;;16.27;59.00;100658.69;5003968;28;1980;-74
2020/12/31 03:57:23;;;;;;;;;;;;;;;16.26;59.09;100667.53;5004474;28;1706;-73
2020/12/31 03:59:49;;;;;;;;;;;;;;;16.26;58.89;100655.19;4989992;28;1152;-74
2020/12/31 04:02:16;;;;;;;;;;;;;;;16.26;58.96;100651.75;4989492;28;1328;-74
2020/12/31 04:04:42;;;;;;;;;;;;;;;16.25;59.04;100655.28;4989762;28;1124;-74
2020/12/31 04:07:08;;;;;;;;;;;;;;;16.25;58.95;100660.56;5004483;28;1336;-74
2020/12/31 04:09:35;;;;;;;;;;;;;;;16.24;58.75;100653.56;4988299;28;1199;-74
2020/12/31 04:12:01;;;;;;;;;;;;;;;16.23;58.82;100657.97;4989453;28;1314;-74
2020/12/31 04:14:27;;;;;;;;;;;;;;;16.24;59.05;100658.84;4989425;28;1131;-73
2020/12/31 04:16:53;;;;;;;;;;;;;;;16.22;58.84;100658.06;4988034;28;1987;-73
2020/12/31 04:19:19;;;;;;;;;;;;;;;16.22;59.08;100652.81;4988308;28;1172;-74
2020/12/31 04:21:47;;;;;;;;;;;;;;;16.22;58.80;100655.44;4989473;28;1204;-74
2020/12/31 04:24:13;;;;;;;;;;;;;;;16.20;58.92;100652.03;4989460;28;1058;-72
2020/12/31 04:26:39;;;;;;;;;;;;;;;16.20;58.86;100658.13;4989533;28;1230;-72
2020/12/31 04:29:05;;;;;;;;;;;;;;;16.19;58.86;100653.81;4989151;28;1044;-72
2020/12/31 04:31:31;;;;;;;;;;;;;;;16.18;58.92;100649.47;4987664;28;1380;-72
2020/12/31 04:33:58;;;;;;;;;;;;;;;16.19;58.91;100652.97;4989078;28;912;-73
2020/12/31 04:36:24;;;;;;;;;;;;;;;16.18;58.77;100638.09;4989110;28;1903;-73
2020/12/31 04:38:50;;;;;;;;;;;;;;;16.15;58.97;100638.25;4989010;28;1347;-73
2020/12/31 04:41:16;;;;;;;;;;;;;;;16.16;58.84;100635.56;4989231;28;1120;-73
2020/12/31 04:43:42;;;;;;;;;;;;;;;16.16;58.91;100624.19;4987871;28;1315;-73
2020/12/31 04:46:10;;;;;;;;;;;;;;;16.14;59.07;100628.69;4987766;28;1229;-74
2020/12/31 04:48:40;;;;;;;;;;;;;;;16.15;59.31;100633.00;5004096;28;1434;-73
2020/12/31 04:51:08;;;;;;;;;;;;;;;16.14;58.94;100626.88;4988169;28;1211;-73
2020/12/31 04:53:34;;;;;;;;;;;;;;;16.12;58.98;100628.75;4989476;28;1330;-72
2020/12/31 04:56:01;;;;;;;;;;;;;;;16.11;58.91;100628.84;4989692;28;1902;-73
2020/12/31 04:58:27;;;;;;;;;;;;;;;16.11;58.80;100620.94;4989277;28;1628;-73
2020/12/31 05:00:53;;;;;;;;;;;;;;;16.11;58.88;100620.94;4989163;28;1141;-71
2020/12/31 05:03:19;;;;;;;;;;;;;;;16.09;58.83;100610.50;4989071;28;1221;-72
2020/12/31 05:05:45;;;;;;;;;;;;;;;16.09;58.77;100617.53;4991181;28;1162;-72
2020/12/31 05:08:16;;;;;;;;;;;;;;;16.10;58.96;100616.59;4992848;28;1328;-72
2020/12/31 05:10:51;;;;;;;;;;;;;;;16.09;58.94;100614.88;5007804;28;1100;-72
2020/12/31 05:13:17;;;;;;;;;;;;;;;16.09;59.00;100621.00;4992769;28;1250;-72
2020/12/31 05:15:43;;;;;;;;;;;;;;;16.08;59.00;100605.31;4991383;28;1950;-72
2020/12/31 05:18:20;;;;;;;;;;;;;;;16.08;59.00;100607.97;4993264;28;1253;-73
2020/12/31 05:20:50;;;;;;;;;;;;;;;16.05;59.05;100605.47;4993230;28;1155;-72
2020/12/31 05:23:18;;;;;;;;;;;;;;;16.05;58.89;100608.94;4992730;28;1380;-72
2020/12/31 05:25:44;;;;;;;;;;;;;;;16.03;59.05;100604.69;4992974;28;1053;-72
2020/12/31 05:28:29;;;;;;;;;;;;;;;16.04;59.01;100603.75;4992482;28;1225;-72
2020/12/31 05:30:57;;;;;;;;;;;;;;;16.04;58.92;100603.75;4992207;28;1237;-72
2020/12/31 05:33:33;;;;;;;;;;;;;;;16.04;58.93;100601.13;4992409;28;1216;-72
2020/12/31 05:36:15;;;;;;;;;;;;;;;16.05;58.74;100606.31;4991138;28;1906;-72
2020/12/31 05:38:43;;;;;;;;;;;;;;;16.02;58.97;100600.38;4990952;28;1297;-72
2020/12/31 05:41:10;;;;;;;;;;;;;;;16.00;58.90;100603.06;4990877;28;861;-72
2020/12/31 05:43:36;;;;;;;;;;;;;;;16.02;58.78;100597.75;4990608;28;1241;-73
2020/12/31 05:46:06;;;;;;;;;;;;;;;15.99;58.91;100595.25;4990748;28;1291;-74
2020/12/31 05:48:32;;;;;;;;;;;;;;;16.00;59.22;100597.78;4992236;28;1233;-73
2020/12/31 05:50:59;;;;;;;;;;;;;;;15.98;59.21;100596.16;5007057;28;1301;-73
2020/12/31 05:53:27;;;;;;;;;;;;;;;15.99;59.02;100596.09;4991918;28;1316;-73
2020/12/31 05:55:56;;;;;;;;;;;;;;;15.97;59.10;100590.06;4991782;28;1980;-73
2020/12/31 05:58:26;;;;;;;;;;;;;;;15.98;59.18;100583.03;4991944;28;1389;-73
2020/12/31 06:01:02;;;;;;;;;;;;;;;15.99;59.06;100597.88;4992508;28;1079;-73
2020/12/31 06:03:36;;;;;;;;;;;;;;;15.98;59.03;100591.78;5006818;28;1223;-73
2020/12/31 06:06:06;;;;;;;;;;;;;;;15.95;59.03;100594.53;4990832;28;1286;-72
2020/12/31 06:08:32;;;;;;;;;;;;;;;15.97;58.83;100590.06;4991551;28;1281;-72
2020/12/31 06:11:01;;;;;;;;;;;;;;;15.95;59.03;100593.69;4990316;28;1303;-72
2020/12/31 06:13:36;;;;;;;;;;;;;;;15.95;58.73;100604.19;4990200;28;1295;-72
2020/12/31 06:16:03;;;;;;;;;;;;;;;15.94;58.87;100602.47;4992174;28;1911;-73
2020/12/31 06:18:31;;;;;;;;;;;;;;;15.94;58.78;100599.84;4991223;28;1229;-72
2020/12/31 06:21:04;;;;;;;;;;;;;;;15.93;58.87;100598.19;4990055;28;1235;-73
2020/12/31 06:23:37;;;;;;;;;;;;;;;15.92;58.67;100599.09;4991514;28;1315;-73
2020/12/31 06:26:11;;;;;;;;;;;;;;;15.91;58.94;100607.88;4991767;28;1164;-73
2020/12/31 06:28:40;;;;;;;;;;;;;;;15.91;58.84;100606.13;4991206;28;1281;-73
2020/12/31 06:31:06;;;;;;;;;;;;;;;15.90;58.84;100601.78;4991664;28;1194;-73
2020/12/31 06:33:39;;;;;;;;;;;;;;;15.88;58.98;100603.63;4989610;28;1304;-73
2020/12/31 06:36:06;;;;;;;;;;;;;;;15.89;59.00;100600.09;4989739;28;1911;-73
2020/12/31 06:38:36;;;;;;;;;;;;;;;15.89;58.85;100601.88;4990957;28;1306;-73
2020/12/31 06:41:04;;;;;;;;;;;;;;;15.88;58.86;100594.91;4991148;28;940;-74
2020/12/31 06:43:35;;;;;;;;;;;;;;;15.88;58.93;100597.53;4990963;28;1211;-74
2020/12/31 06:46:15;;;;;;;;;;;;;;;15.87;58.97;100606.34;4991266;28;1289;-74
2020/12/31 06:48:41;;;;;;;;;;;;;;;15.87;58.86;100608.97;4989561;28;1217;-74
2020/12/31 06:51:11;;;;;;;;;;;;;;;15.86;58.98;100613.38;4989617;28;946;-74
2020/12/31 06:53:37;;;;;;;;;;;;;;;15.86;58.89;100597.59;4991073;28;1329;-73
2020/12/31 06:56:05;;;;;;;;;;;;;;;15.88;58.87;100608.03;4989319;28;1906;-74
2020/12/31 06:58:31;;;;;;;;;;;;;;;15.84;59.07;100608.19;4990659;28;1443;-74
2020/12/31 07:00:58;;;;;;;;;;;;;;;15.85;59.44;100612.50;4989252;28;1311;-74
2020/12/31 07:03:40;;;;;;;;;;;;;;;15.83;58.97;100610.88;4990607;28;1316;-74
2020/12/31 07:06:28;;;;;;;;;;;;;;;15.82;58.88;100625.78;4989415;28;1299;-75
2020/12/31 07:09:14;;;;;;;;;;;;;;;15.82;58.82;100623.16;4989212;28;1041;-74
2020/12/31 07:11:40;;;;;;;;;;;;;;;15.81;58.84;100618.81;4989949;28;1271;-74
2020/12/31 07:14:10;;;;;;;;;;;;;;;15.82;58.83;100625.78;4989081;28;1290;-71
2020/12/31 07:16:36;;;;;;;;;;;;;;;15.81;58.91;100628.47;4990287;28;2284;-72
2020/12/31 07:19:03;;;;;;;;;;;;;;;15.80;58.75;100622.41;4988818;28;1152;-73
2020/12/31 07:21:30;;;;;;;;;;;;;;;15.80;58.75;100619.78;4990107;28;1238;-73
2020/12/31 07:23:57;;;;;;;;;;;;;;;15.81;58.94;100623.22;4988617;28;1201;-73
2020/12/31 07:26:26;;;;;;;;;;;;;;;15.86;58.23;100621.25;5005028;28;822;-74
2020/12/31 07:28:53;;;;;;;;;;;;;;;15.83;59.03;100632.75;5004270;28;1074;-73
2020/12/31 07:32:01;;;;;;;;;;;;;;;15.87;58.96;100630.81;5004918;28;1060;-75
2020/12/31 07:34:28;;;;;;;;;;;;;;;15.85;59.07;100630.91;4971212;28;1080;-72
2020/12/31 07:37:00;;;;;;;;;;;;;;;15.84;59.07;100639.69;4970894;28;1931;-76
2020/12/31 07:39:28;;;;;;;;;;;;;;;15.86;59.21;100642.25;4988828;28;1069;-73
2020/12/31 07:42:09;;;;;;;;;;;;;;;15.85;59.05;100640.56;4989993;28;1225;-74
2020/12/31 07:44:36;;;;;;;;;;;;;;;15.84;59.09;100646.72;4989719;28;1056;-74
2020/12/31 07:47:02;;;;;;;;;;;;;;;15.83;59.15;100642.41;4989920;28;1276;-73
2020/12/31 07:49:41;;;;;;;;;;;;;;;15.83;59.06;100632.75;4988590;28;973;-72
2020/12/31 07:52:08;;;;;;;;;;;;;;;15.87;59.06;100637.88;5004831;28;1284;-71
2020/12/31 07:54:34;;;;;;;;;;;;;;;15.86;59.36;100639.63;4989580;28;740;-70
2020/12/31 07:57:03;;;;;;;;;;;;;;;15.85;59.26;100641.41;5004178;28;1973;-70
2020/12/31 07:59:29;;;;;;;;;;;;;;;15.89;59.31;100639.50;4988096;28;1263;-71
2020/12/31 08:01:56;;;;;;;;;;;;;;;15.85;59.25;100644.03;4989914;28;1403;-72
2020/12/31 08:04:28;;;;;;;;;;;;;;;15.84;59.19;100644.94;4989656;28;850;-72
2020/12/31 08:06:54;;;;;;;;;;;;;;;15.85;59.16;100643.19;4989881;28;1301;-73
2020/12/31 08:09:21;;;;;;;;;;;;;;;15.87;59.13;100653.63;5004627;28;826;-73
2020/12/31 08:11:49;;;;;;;;;;;;;;;15.83;59.21;100653.78;4990037;28;1351;-72
2020/12/31 08:14:16;;;;;;;;;;;;;;;15.82;59.28;100656.44;4989801;28;1030;-76
2020/12/31 08:16:42;;;;;;;;;;;;;;;15.81;59.15;100649.47;4989748;28;1985;-74
2020/12/31 08:19:08;;;;;;;;;;;;;;;15.83;59.06;100653.78;4989598;28;823;-72
2020/12/31 08:21:36;;;;;;;;;;;;;;;15.82;59.20;100654.69;4989682;28;1324;-72
2020/12/31 08:24:06;;;;;;;;;;;;;;;15.83;59.22;100648.50;4989774;28;874;-72
2020/12/31 08:26:32;;;;;;;;;;;;;;;15.81;59.27;100655.59;4989911;28;1280;-70
2020/12/31 08:28:58;;;;;;;;;;;;;;;15.81;59.29;100655.59;4988222;28;1184;-71
2020/12/31 08:31:27;;;;;;;;;;;;;;;15.83;59.14;100652.91;4988156;28;1742;-76
2020/12/31 08:34:01;;;;;;;;;;;;;;;15.84;59.12;100655.44;4989156;28;1191;-76
2020/12/31 08:36:27;;;;;;;;;;;;;;;15.81;59.31;100654.75;4989357;28;1977;-74
2020/12/31 08:39:05;;;;;;;;;;;;;;;15.80;59.26;100647.81;4990714;28;763;-76
2020/12/31 08:41:31;;;;;;;;;;;;;;;15.79;59.29;100646.94;4990435;28;1348;-75
2020/12/31 08:43:59;;;;;;;;;;;;;;;15.78;59.32;100644.38;4993995;28;799;-77
2020/12/31 08:46:28;;;;;;;;;;;;;;;15.81;59.31;100646.84;4993851;28;941;-78
2020/12/31 08:49:17;;;;;;;;;;;;;;;15.81;59.15;100647.72;4991936;28;1340;-79
2020/12/31 08:51:44;;;;;;;;;;;;;;;15.79;59.23;100633.81;4993150;28;1338;-76
2020/12/31 08:54:14;;;;;;;;;;;;;;;15.80;59.16;100634.66;4994495;28;1153;-76
2020/12/31 08:56:41;;;;;;;;;;;;;;;15.81;59.26;100636.34;4990572;28;1902;-75
2020/12/31 08:59:11;;;;;;;;;;;;;;;15.78;59.30;100634.72;4993378;28;1296;-73
2020/12/31 09:01:38;;;;;;;;;;;;;;;15.75;57.21;100634.00;4992830;28;1232;-71
2020/12/31 09:04:13;;;;;;;;;;;;;;;15.16;50.23;100627.03;4993323;28;936;-74
2020/12/31 09:06:43;;;;;;;;;;;;;;;14.05;51.12;100629.91;4993272;28;1293;-77
2020/12/31 09:09:22;;;;;;;;;;;;;;;14.82;51.60;100621.53;4994370;28;932;-75
2020/12/31 09:11:56;;;;;;;;;;;;;;;15.28;53.72;100617.78;5008113;28;1270;-76
2020/12/31 09:14:29;;;;;;;;;;;;;;;15.49;54.00;100626.47;4992871;28;1018;-74
2020/12/31 09:17:32;;;;;;;;;;;;;;;15.57;52.82;100634.84;4992675;28;1914;-77
2020/12/31 09:19:58;;;;;;;;;;;;;;;15.65;52.99;100636.22;4991337;28;1277;-78
2020/12/31 09:22:31;;;;;;;;;;;;;;;15.92;52.00;100636.72;4991886;28;1311;-75
2020/12/31 09:25:08;;;;;;;;;;;;;;;15.91;53.54;100629.75;4992603;28;1328;-74
2020/12/31 09:27:34;;;;;;;;;;;;;;;16.04;53.78;100625.63;4990586;28;1359;-73
2020/12/31 09:30:01;;;;;;;;;;;;;;;16.12;54.08;100630.50;4992773;28;896;-74
2020/12/31 09:32:28;;;;;;;;;;;;;;;16.24;53.57;100622.03;4992248;28;1229;-74
2020/12/31 09:35:08;;;;;;;;;;;;;;;16.62;52.40;100617.56;5004850;28;937;-72
2020/12/31 09:37:48;;;;;;;;;;;;;;;16.70;53.45;100615.41;4992580;28;1906;-72
2020/12/31 09:40:14;;;;;;;;;;;;;;;16.79;52.81;100605.28;4992401;28;1070;-73
2020/12/31 09:42:40;;;;;;;;;;;;;;;16.81;53.75;100606.03;4992128;28;1276;-73
2020/12/31 09:45:07;;;;;;;;;;;;;;;16.84;53.79;100603.25;4991849;28;940;-73
2020/12/31 09:47:33;;;;;;;;;;;;;;;16.92;53.48;100610.75;4990444;28;1440;-73
2020/12/31 09:50:03;;;;;;;;;;;;;;;17.01;53.16;100606.81;4992256;28;972;-71
2020/12/31 09:52:30;;;;;;;;;;;;;;;17.14;52.09;100605.25;4991006;28;1197;-72
2020/12/31 09:54:58;;;;;;;;;;;;;;;17.27;52.85;100603.63;4988070;28;1712;-74
2020/12/31 09:57:25;;;;;;;;;;;;;;;17.33;52.57;100595.41;4988841;28;1926;-74
2020/12/31 09:59:51;;;;;;;;;;;;;;;17.51;52.19;100609.41;4990353;28;1118;-73
2020/12/31 10:02:17;;;;;;;;;;;;;;;17.52;52.59;100604.03;4989047;28;1305;-72
2020/12/31 10:04:44;;;;;;;;;;;;;;;17.57;52.63;100604.66;4988835;28;949;-73
2020/12/31 10:07:11;;;;;;;;;;;;;;;17.66;52.62;100604.16;4988968;28;1339;-72
2020/12/31 10:09:37;;;;;;;;;;;;;;;17.65;53.04;100599.84;4989142;28;2096;-72
2020/12/31 10:12:13;;;;;;;;;;;;;;;17.82;53.09;100583.09;4988073;28;1688;-70
2020/12/31 10:14:40;;;;;;;;;;;;;;;17.88;53.12;100588.88;4989810;28;942;-70
2020/12/31 10:17:07;;;;;;;;;;;;;;;17.97;53.14;100577.84;4990426;28;1906;-78
2020/12/31 10:19:33;;;;;;;;;;;;;;;18.07;53.24;100572.03;4989115;28;1277;-75
2020/12/31 10:22:01;;;;;;;;;;;;;;;18.11;52.99;100563.88;4990247;28;1367;-74
2020/12/31 10:24:27;;;;;;;;;;;;;;;17.95;53.17;100563.91;4973330;28;2398;-77
2020/12/31 10:26:53;;;;;;;;;;;;;;;17.92;53.38;100569.34;4990532;28;1375;-79
2020/12/31 10:29:20;;;;;;;;;;;;;;;17.87;53.73;100568.72;4989857;28;1210;-74
2020/12/31 10:31:52;;;;;;;;;;;;;;;17.85;53.65;100557.44;4988799;28;1302;-69
2020/12/31 10:34:19;;;;;;;;;;;;;;;18.06;54.29;100555.38;4989978;28;1120;-72
2020/12/31 10:36:49;;;;;;;;;;;;;;;17.98;54.01;100557.59;4990148;28;1922;-72
2020/12/31 10:39:16;;;;;;;;;;;;;;;17.90;53.78;100554.56;4990096;28;1043;-69
2020/12/31 10:41:43;;;;;;;;;;;;;;;17.89;53.80;100548.44;4990009;28;1284;-70
2020/12/31 10:44:09;;;;;;;;;;;;;;;17.93;53.80;100533.31;4989783;28;839;-70
2020/12/31 10:46:35;;;;;;;;;;;;;;;17.94;53.69;100532.34;4989986;28;1398;-73
2020/12/31 10:49:02;;;;;;;;;;;;;;;17.94;53.70;100522.66;4989821;28;787;-70
2020/12/31 10:51:34;;;;;;;;;;;;;;;17.95;53.66;100528.78;4989571;28;1338;-70
2020/12/31 10:54:00;;;;;;;;;;;;;;;17.94;53.70;100525.28;4989306;28;1024;-70
2020/12/31 10:56:26;;;;;;;;;;;;;;;17.98;53.72;100523.34;4987830;28;2015;-70
2020/12/31 10:58:58;;;;;;;;;;;;;;;18.00;53.88;100524.09;4989539;28;1487;-72
2020/12/31 11:01:25;;;;;;;;;;;;;;;17.96;53.79;100509.41;4971738;28;1303;-71
2020/12/31 11:03:51;;;;;;;;;;;;;;;18.03;53.70;100508.97;4988078;28;1313;-71
2020/12/31 11:06:25;;;;;;;;;;;;;;;18.09;54.06;100512.19;4989350;28;1135;-71
2020/12/31 11:08:52;;;;;;;;;;;;;;;18.12;53.85;100514.66;4987593;28;1242;-71
2020/12/31 11:11:37;;;;;;;;;;;;;;;18.17;53.40;100510.81;4988892;28;1125;-70
2020/12/31 11:14:06;;;;;;;;;;;;;;;18.19;53.72;100508.06;4989491;28;787;-72
2020/12/31 11:16:33;;;;;;;;;;;;;;;18.20;53.87;100500.09;4989495;28;1961;-71
2020/12/31 11:19:01;;;;;;;;;;;;;;;18.13;53.88;100492.59;4987038;28;1188;-72
2020/12/31 11:21:27;;;;;;;;;;;;;;;18.13;53.73;100487.34;4989008;28;1281;-72
2020/12/31 11:23:54;;;;;;;;;;;;;;;18.17;53.69;100481.81;4987134;28;1267;-72
2020/12/31 11:26:21;;;;;;;;;;;;;;;18.20;53.80;100473.72;4987446;28;1151;-71
2020/12/31 11:28:47;;;;;;;;;;;;;;;18.22;53.68;100471.84;4986579;28;1320;-71
2020/12/31 11:31:15;;;;;;;;;;;;;;;18.25;53.67;100460.25;4988331;28;1408;-72
2020/12/31 11:33:44;;;;;;;;;;;;;;;18.28;53.84;100462.72;4988450;28;1347;-73
2020/12/31 11:36:11;;;;;;;;;;;;;;;18.28;53.67;100460.06;4987467;28;2025;-72
2020/12/31 11:38:37;;;;;;;;;;;;;;;18.28;54.02;100460.06;4986998;28;1229;-72
2020/12/31 11:41:05;;;;;;;;;;;;;;;18.30;53.92;100456.41;4988199;28;1040;-71
2020/12/31 11:43:32;;;;;;;;;;;;;;;18.37;53.89;100448.97;4986898;28;1299;-73
2020/12/31 11:45:58;;;;;;;;;;;;;;;18.37;54.06;100439.28;4988845;28;1141;-70
2020/12/31 11:48:25;;;;;;;;;;;;;;;18.37;54.09;100434.00;4986777;28;1241;-71
2020/12/31 11:50:52;;;;;;;;;;;;;;;18.39;54.21;100426.84;4988590;28;1093;-72
2020/12/31 11:53:19;;;;;;;;;;;;;;;18.39;54.31;100420.75;4986805;28;1332;-72
2020/12/31 11:55:46;;;;;;;;;;;;;;;18.41;54.26;100419.72;4987054;28;1910;-71
2020/12/31 11:58:14;;;;;;;;;;;;;;;18.44;54.32;100410.75;4988225;28;1476;-71
2020/12/31 12:00:41;;;;;;;;;;;;;;;18.43;54.61;100401.13;4988707;28;1068;-73
2020/12/31 12:03:07;;;;;;;;;;;;;;;18.45;54.56;100404.56;4987074;28;1293;-73
2020/12/31 12:05:34;;;;;;;;;;;;;;;18.44;55.01;100402.84;4986827;28;1453;-73
2020/12/31 12:08:00;;;;;;;;;;;;;;;18.45;55.01;100386.09;4986564;28;1296;-72
2020/12/31 12:10:26;;;;;;;;;;;;;;;18.46;55.17;100390.41;4987434;28;1555;-73
2020/12/31 12:13:22;;;;;;;;;;;;;;;18.38;55.09;100392.66;4988059;28;1264;-72
2020/12/31 12:16:01;;;;;;;;;;;;;;;;;;;;;
2020/12/31 12:18:42;;;;;;;;;;;;;;;18.43;55.15;100375.63;5025710;22;1779;-71
2020/12/31 12:25:36;;;;;;;;;;;;;;;18.49;55.45;100363.88;4930358;29;1169;-73
2020/12/31 12:28:04;;;;;;;;;;;;;;;18.49;55.78;100358.59;4946667;29;1197;-72
2020/12/31 12:30:31;;;;;;;;;;;;;;;18.48;55.96;100354.25;4946506;29;1036;-73
2020/12/31 12:32:57;;;;;;;;;;;;;;;18.49;56.14;100350.69;4946175;29;1312;-72
2020/12/31 12:35:23;;;;;;;;;;;;;;;18.50;56.06;100349.75;4946211;29;1038;-72
2020/12/31 12:37:49;;;;;;;;;;;;;;;18.47;56.22;100340.22;4929909;29;1907;-72
2020/12/31 12:40:16;;;;;;;;;;;;;;;18.49;55.86;100337.50;4980993;28;938;-70
2020/12/31 12:42:42;;;;;;;;;;;;;;;18.58;56.14;100336.06;4987851;28;1268;-73
2020/12/31 12:45:09;;;;;;;;;;;;;;;18.68;55.46;100324.84;4970136;28;1075;-72
2020/12/31 12:47:36;;;;;;;;;;;;;;;18.65;56.12;100335.59;4987945;28;1476;-72
2020/12/31 12:50:06;;;;;;;;;;;;;;;18.63;56.61;100332.22;4986612;28;696;-73
2020/12/31 12:52:39;;;;;;;;;;;;;;;18.65;56.55;100319.78;4987617;28;1233;-78
2020/12/31 12:55:12;;;;;;;;;;;;;;;18.74;56.33;100321.84;4971207;28;1293;-74
2020/12/31 12:57:38;;;;;;;;;;;;;;;18.54;55.54;100322.25;4987727;28;1903;-71
2020/12/31 13:00:25;;;;;;;;;;;;;;;18.67;56.03;100320.50;4987734;28;907;-73